createdAt,value
2023-05-19T00:04:33.530Z,88.47
2023-05-19T00:14:36.879Z,89.42
2023-05-19T00:24:40.959Z,90.30
2023-05-19T00:34:43.769Z,89.99
2023-05-19T00:44:47.932Z,89.58
2023-05-19T00:54:52.576Z,89.04
2023-05-19T01:04:58.168Z,89.40
2023-05-19T01:15:01.204Z,89.26
2023-05-19T01:25:32.743Z,89.14
2023-05-19T01:35:38.942Z,89.69
2023-05-19T01:45:43.045Z,89.27
2023-05-19T01:55:50.065Z,88.81
2023-05-19T02:06:00.221Z,89.28
2023-05-19T02:16:06.861Z,89.26
2023-05-19T02:26:09.817Z,88.78
2023-05-19T02:36:14.536Z,89.83
2023-05-19T02:46:17.256Z,90.05
2023-05-19T02:56:21.682Z,89.33
2023-05-19T03:06:24.414Z,89.53
2023-05-19T03:16:28.571Z,89.35
2023-05-19T03:26:31.502Z,89.66
2023-05-19T03:36:39.650Z,89.77
2023-05-19T03:46:42.444Z,89.95
2023-05-19T03:56:47.028Z,89.77
2023-05-19T04:06:49.841Z,89.59
2023-05-19T04:16:54.188Z,89.32
2023-05-19T04:26:56.987Z,89.88
2023-05-19T04:37:01.312Z,90.23
2023-05-19T04:47:06.208Z,90.29
2023-05-19T04:57:10.682Z,90.35
2023-05-19T05:07:13.365Z,90.76
2023-05-19T05:17:18.187Z,90.65
2023-05-19T05:27:20.962Z,90.52
2023-05-19T05:37:25.009Z,89.45
2023-05-19T05:47:28.279Z,88.78
2023-05-19T05:57:35.287Z,87.46
2023-05-19T06:07:37.979Z,86.13
2023-05-19T06:17:42.020Z,84.84
2023-05-19T06:27:44.711Z,82.09
2023-05-19T06:37:48.750Z,77.75
2023-05-19T06:47:51.439Z,75.03
2023-05-19T06:57:55.486Z,72.61
2023-05-19T07:07:58.127Z,69.07
2023-05-19T07:18:02.226Z,64.89
2023-05-19T07:28:05.101Z,62.86
2023-05-19T07:38:09.142Z,60.83
2023-05-19T07:48:11.890Z,59.48
2023-05-19T07:58:16.823Z,58.83
2023-05-19T08:08:19.574Z,58.03
2023-05-19T08:18:23.615Z,57.23
2023-05-19T08:28:26.516Z,56.93
2023-05-19T08:38:31.062Z,55.27
2023-05-19T08:48:36.122Z,54.19
2023-05-19T08:58:43.951Z,54.01
2023-05-19T09:08:47.143Z,53.13
2023-05-19T09:18:58.665Z,51.49
2023-05-19T09:29:02.243Z,51.89
2023-05-19T09:39:14.267Z,49.73
2023-05-19T09:49:21.972Z,47.70
2023-05-19T09:59:29.774Z,46.35
2023-05-19T10:09:37.232Z,44.93
2023-05-19T10:19:42.070Z,44.35
2023-05-19T10:29:54.071Z,42.00
2023-05-19T10:39:59.018Z,43.34
2023-05-19T10:50:02.011Z,42.07
2023-05-19T11:00:30.043Z,41.31
2023-05-19T11:10:33.460Z,41.36
2023-05-19T11:20:40.798Z,38.98
2023-05-19T11:30:45.531Z,37.11
2023-05-19T11:40:53.622Z,30.03
2023-05-19T11:50:56.762Z,25.07
2023-05-19T12:01:05.023Z,20.37
2023-05-19T12:11:07.867Z,18.64
2023-05-19T12:21:12.449Z,17.59
2023-05-19T12:31:15.152Z,21.57
2023-05-19T12:41:19.391Z,19.36
2023-05-19T12:51:22.239Z,19.29
2023-05-19T13:01:26.714Z,20.27
2023-05-19T13:11:29.930Z,25.08
2023-05-19T13:21:33.935Z,23.75
2023-05-19T13:31:36.610Z,25.01
2023-05-19T13:41:40.690Z,23.02
2023-05-19T13:51:44.566Z,28.14
2023-05-19T14:01:49.173Z,25.29
2023-05-19T14:11:52.029Z,31.02
2023-05-19T14:21:56.061Z,30.74
2023-05-19T14:31:58.832Z,32.34
2023-05-19T14:42:02.915Z,29.44
2023-05-19T14:52:06.034Z,31.60
2023-05-19T15:02:11.538Z,34.63
2023-05-19T15:12:14.262Z,33.50
2023-05-19T15:22:18.396Z,32.02
2023-05-19T15:32:21.212Z,30.87
2023-05-19T15:42:26.221Z,30.51
2023-05-19T15:52:29.268Z,32.31
2023-05-19T16:02:33.601Z,33.85
2023-05-19T16:12:36.552Z,34.37
2023-05-19T16:22:40.991Z,36.26
2023-05-19T16:32:43.766Z,35.11
2023-05-19T16:42:47.862Z,36.15
2023-05-19T16:52:50.617Z,37.00
2023-05-19T17:02:54.728Z,35.98
2023-05-19T17:12:57.443Z,36.88
2023-05-19T17:23:01.573Z,39.71
2023-05-19T17:33:04.345Z,41.88
2023-05-19T17:43:08.568Z,41.62
2023-05-19T17:53:11.362Z,40.97
2023-05-19T18:03:16.060Z,40.98
2023-05-19T18:13:18.822Z,40.65
2023-05-19T18:23:22.779Z,43.34
2023-05-19T18:33:26.806Z,44.71
2023-05-19T18:43:32.413Z,45.70
2023-05-19T18:53:35.601Z,47.19
2023-05-19T19:03:41.835Z,48.52
2023-05-19T19:13:44.703Z,49.98
2023-05-19T19:23:48.964Z,50.94
2023-05-19T19:33:51.743Z,52.92
2023-05-19T19:43:55.722Z,54.94
2023-05-19T19:53:58.684Z,56.47
2023-05-19T20:04:02.725Z,58.07
2023-05-19T20:14:05.559Z,59.83
2023-05-19T20:24:09.691Z,61.42
2023-05-19T20:34:12.456Z,62.90
2023-05-19T20:44:16.889Z,64.05
2023-05-19T20:54:20.196Z,64.86
2023-05-19T21:04:24.531Z,65.64
2023-05-19T21:14:27.277Z,66.69
2023-05-19T21:24:31.446Z,67.81
2023-05-19T21:34:34.110Z,68.94
2023-05-19T21:44:38.269Z,69.30
2023-05-19T21:54:41.064Z,70.03
2023-05-19T22:04:45.137Z,70.85
2023-05-19T22:14:47.825Z,71.00
2023-05-19T22:24:51.844Z,71.30
2023-05-19T22:34:54.595Z,71.58
2023-05-19T22:44:58.782Z,71.19
2023-05-19T22:55:01.426Z,71.35
2023-05-19T23:05:05.846Z,71.27
2023-05-19T23:15:09.603Z,71.76
2023-05-19T23:25:13.637Z,71.87
2023-05-19T23:35:20.001Z,72.10
2023-05-19T23:45:24.032Z,72.79
2023-05-19T23:55:26.774Z,72.51
